Time;durP1;ratioP1;P1;durP2;ratioP2;P2;SDS_P1;SDS_P2;PMS_P1;PMS_P2;Temp;Humidity;BMP_temperature;BMP_pressure;BME280_temperature;BME280_humidity;BME280_pressure;Samples;Min_cycle;Max_cycle;Signal;HPM_P1;HPM_P2
2023/03/25 00:02:23;;;;;;;0.50;0.50;;;;;;;10.16;82.21;99210.56;5128514;27;20565;-59
2023/03/25 00:04:51;;;;;;;0.43;0.43;;;;;;;10.14;82.72;99217.47;5128496;27;20265;-59
2023/03/25 00:07:18;;;;;;;0.87;0.87;;;;;;;10.11;82.64;99211.56;5127401;27;20641;-59
2023/03/25 00:09:45;;;;;;;0.70;0.70;;;;;;;10.08;83.00;99204.81;5128124;27;20289;-60
2023/03/25 00:12:12;;;;;;;0.50;0.50;;;;;;;10.06;82.49;99205.75;5124430;27;20215;-60
2023/03/25 00:14:41;;;;;;;0.40;0.40;;;;;;;10.03;83.10;99207.53;5122420;27;20661;-58
2023/03/25 00:17:09;;;;;;;0.83;0.83;;;;;;;9.95;83.28;99206.91;5130590;27;20289;-59
2023/03/25 00:19:36;;;;;;;0.60;0.60;;;;;;;9.86;83.11;99191.00;5126377;27;20194;-59
2023/03/25 00:22:02;;;;;;;0.40;0.40;;;;;;;9.83;83.81;99191.09;5119581;27;20570;-59
2023/03/25 00:24:29;;;;;;;0.87;0.87;;;;;;;9.82;84.57;99195.38;5123365;27;20198;-59
2023/03/25 00:26:56;;;;;;;0.47;0.47;;;;;;;9.79;84.29;99194.66;5128729;27;20197;-59
2023/03/25 00:29:23;;;;;;;0.50;0.50;;;;;;;9.70;84.81;99194.91;5119337;27;20579;-59
2023/03/25 00:31:51;;;;;;;0.77;0.77;;;;;;;9.66;85.51;99193.34;5119286;27;20207;-59
2023/03/25 00:34:19;;;;;;;0.67;0.67;;;;;;;9.63;85.41;99190.88;5127544;27;20669;-58
2023/03/25 00:36:45;;;;;;;0.50;0.50;;;;;;;9.62;85.49;99186.63;5123884;27;20267;-60
2023/03/25 00:39:12;;;;;;;0.50;0.50;;;;;;;9.62;85.43;99184.06;5119820;27;20195;-59
2023/03/25 00:41:40;;;;;;;0.53;0.53;;;;;;;9.64;85.53;99179.72;5127197;27;20194;-59
2023/03/25 00:44:08;;;;;;;0.80;0.80;;;;;;;9.62;85.59;99186.63;5126474;27;20206;-60
2023/03/25 00:46:35;;;;;;;0.93;0.93;;;;;;;9.53;85.55;99176.66;5128316;27;20672;-60
2023/03/25 00:49:03;;;;;;;0.83;0.83;;;;;;;9.52;85.64;99169.88;5121655;27;20247;-60
2023/03/25 00:51:32;;;;;;;0.60;0.60;;;;;;;9.57;85.64;99168.00;5118677;27;20214;-59
2023/03/25 00:54:00;;;;;;;0.50;0.50;;;;;;;9.55;85.54;99167.22;5120489;27;20234;-59
2023/03/25 00:56:27;;;;;;;0.40;0.40;;;;;;;9.49;86.44;99173.38;5121020;27;20741;-60
2023/03/25 00:58:54;;;;;;;0.50;0.50;;;;;;;9.31;86.61;99148.28;5119819;27;20210;-59
2023/03/25 01:01:25;;;;;;;0.50;0.50;;;;;;;9.38;86.66;99171.09;5130795;27;20192;-59
2023/03/25 01:03:56;;;;;;;0.50;0.50;;;;;;;9.35;87.21;99172.91;5132241;27;20195;-59
2023/03/25 01:06:28;;;;;;;0.50;0.50;;;;;;;9.26;87.25;99156.13;5122022;27;20194;-59
2023/03/25 01:08:56;;;;;;;1.23;1.23;;;;;;;9.25;87.44;99161.25;5129413;27;20194;-59
2023/03/25 01:11:26;;;;;;;0.50;0.50;;;;;;;9.25;87.40;99166.38;5127369;27;20249;-59
2023/03/25 01:13:55;;;;;;;1.30;0.80;;;;;;;9.21;87.55;99162.25;5119547;28;20197;-58
2023/03/25 01:16:22;;;;;;;0.60;0.60;;;;;;;9.22;87.43;99162.19;5131867;27;20706;-60
2023/03/25 01:18:49;;;;;;;0.80;0.80;;;;;;;9.18;87.57;99155.47;5126754;27;20689;-59
2023/03/25 01:21:16;;;;;;;0.40;0.40;;;;;;;9.17;87.44;99150.44;5132057;27;20190;-59
2023/03/25 01:23:45;;;;;;;0.50;0.50;;;;;;;9.18;87.21;99149.53;5124489;28;20190;-59
2023/03/25 01:26:12;;;;;;;0.70;0.70;;;;;;;9.15;87.56;99134.28;5124485;28;20190;-59
2023/03/25 01:28:40;;;;;;;0.50;0.50;;;;;;;9.15;87.55;99136.81;5126503;28;20649;-60
2023/03/25 01:31:10;;;;;;;0.53;0.53;;;;;;;9.13;88.24;99136.88;5130009;28;20291;-59
2023/03/25 01:33:37;;;;;;;0.50;0.50;;;;;;;9.11;88.10;99143.75;5134152;27;20197;-60
2023/03/25 01:36:08;;;;;;;0.60;0.60;;;;;;;9.09;88.13;99132.72;5132047;27;20198;-60
2023/03/25 01:38:35;;;;;;;1.00;0.93;;;;;;;8.94;88.29;99110.16;5132648;27;20484;-59
2023/03/25 01:41:04;;;;;;;0.60;0.60;;;;;;;9.08;88.46;99136.16;5128761;27;20658;-59
2023/03/25 01:43:31;;;;;;;0.50;0.50;;;;;;;8.98;88.34;99126.25;5125830;27;20234;-59
2023/03/25 01:45:58;;;;;;;0.83;0.83;;;;;;;9.02;88.76;99133.78;5125594;27;20236;-59
2023/03/25 01:48:31;;;;;;;0.63;0.63;;;;;;;9.01;88.63;99121.91;5131451;27;20589;-59
2023/03/25 01:51:02;;;;;;;0.73;0.73;;;;;;;9.00;89.25;99130.44;5129239;27;20228;-59
2023/03/25 01:53:31;;;;;;;0.60;0.60;;;;;;;8.98;89.28;99127.09;5128619;27;20657;-59
2023/03/25 01:56:01;;;;;;;0.67;0.67;;;;;;;8.94;89.69;99118.69;5131235;27;20575;-59
2023/03/25 01:58:31;;;;;;;0.50;0.50;;;;;;;8.91;90.27;99111.09;5131540;27;20200;-58
2023/03/25 02:01:00;;;;;;;0.60;0.60;;;;;;;8.88;90.56;99110.34;5131848;27;20688;-59
2023/03/25 02:03:27;;;;;;;0.93;0.93;;;;;;;8.86;90.80;99106.97;5134235;27;20198;-60
2023/03/25 02:05:59;;;;;;;0.50;0.50;;;;;;;8.86;90.75;99106.97;5125452;27;20201;-59
2023/03/25 02:08:26;;;;;;;0.50;0.50;;;;;;;8.85;90.78;99120.66;5131606;27;20194;-59
2023/03/25 02:10:53;;;;;;;0.50;0.50;;;;;;;8.83;90.89;99123.25;5121006;27;20195;-59
2023/03/25 02:13:21;;;;;;;0.60;0.60;;;;;;;8.79;90.92;99111.41;5133935;27;20202;-60
2023/03/25 02:16:20;;;;;;;0.40;0.40;;;;;;;8.63;91.65;99091.44;5128819;27;20259;-59
2023/03/25 02:18:59;;;;;;;0.53;0.53;;;;;;;8.69;91.75;99104.88;5124274;27;20206;-59
2023/03/25 02:22:06;;;;;;;0.47;0.47;;;;;;;8.67;92.19;99096.44;5130071;27;20274;-59
2023/03/25 02:25:23;;;;;;;0.50;0.50;;;;;;;8.62;92.55;99094.88;5129277;27;20243;-59
2023/03/25 02:28:01;;;;;;;0.50;0.50;;;;;;;8.60;92.82;99099.19;5073176;27;20194;-59
2023/03/25 02:30:44;;;;;;;0.50;0.50;;;;;;;8.45;92.84;99072.34;5129184;27;20198;-59
2023/03/25 02:33:47;;;;;;;0.50;0.50;;;;;;;8.54;93.09;99089.97;5125483;27;20210;-60
2023/03/25 02:36:58;;;;;;;0.60;0.60;;;;;;;8.51;93.38;99089.22;5099266;27;20285;-60
2023/03/25 02:39:32;;;;;;;0.50;0.50;;;;;;;8.50;93.14;99092.66;5122264;27;20206;-59
2023/03/25 02:42:04;;;;;;;0.50;0.50;;;;;;;8.49;92.98;99090.97;5127241;27;20194;-59
2023/03/25 02:44:37;;;;;;;1.03;1.03;;;;;;;8.48;93.50;99089.28;5120505;27;20201;-59
2023/03/25 02:47:07;;;;;;;0.50;0.50;;;;;;;8.46;93.36;99091.06;5126562;27;20280;-59
2023/03/25 02:49:38;;;;;;;0.70;0.70;;;;;;;8.43;93.14;99087.69;5130464;27;20199;-59
2023/03/25 02:52:11;;;;;;;0.50;0.50;;;;;;;8.41;93.26;99073.28;5131256;27;20214;-60
2023/03/25 02:54:43;;;;;;;0.60;0.60;;;;;;;8.40;93.28;99072.44;5129571;27;20237;-59
2023/03/25 02:57:13;;;;;;;0.50;0.50;;;;;;;8.37;93.46;99075.09;5134170;27;20190;-60
2023/03/25 02:59:47;;;;;;;0.60;0.60;;;;;;;8.28;93.70;99062.56;5123982;27;20203;-59
2023/03/25 03:02:16;;;;;;;0.60;0.60;;;;;;;8.19;94.08;99047.47;5126718;27;20297;-59
2023/03/25 03:04:47;;;;;;;0.40;0.40;;;;;;;8.26;94.38;99051.53;5128728;27;20233;-59
2023/03/25 03:07:23;;;;;;;0.50;0.50;;;;;;;8.13;94.27;99032.31;5127421;27;20195;-59
2023/03/25 03:09:57;;;;;;;0.50;0.50;;;;;;;8.25;94.41;99057.50;5128336;27;20197;-60
2023/03/25 03:12:41;;;;;;;0.50;0.50;;;;;;;8.24;94.12;99068.59;5127982;27;20307;-59
2023/03/25 03:15:21;;;;;;;0.60;0.60;;;;;;;8.22;94.13;99067.81;5130568;27;20597;-59
2023/03/25 03:17:56;;;;;;;0.53;0.53;;;;;;;8.17;93.63;99059.44;5132929;27;20247;-58
2023/03/25 03:20:35;;;;;;;1.90;1.03;;;;;;;8.20;94.00;99069.56;5122095;27;20194;-59
2023/03/25 03:23:10;;;;;;;1.90;0.80;;;;;;;8.16;93.62;99052.66;5130415;27;20205;-60
2023/03/25 03:25:46;;;;;;;0.50;0.50;;;;;;;8.14;93.21;99054.38;5127677;27;20247;-59
2023/03/25 03:28:21;;;;;;;0.50;0.50;;;;;;;8.11;93.63;99054.47;5134612;27;20199;-58
2023/03/25 03:30:53;;;;;;;0.80;0.80;;;;;;;8.02;93.71;99046.22;5126275;27;20193;-59
2023/03/25 03:33:25;;;;;;;0.50;0.50;;;;;;;7.98;94.42;99048.00;5131329;27;20222;-59
2023/03/25 03:35:57;;;;;;;0.50;0.50;;;;;;;7.90;94.26;99042.25;5129008;27;20327;-59
2023/03/25 03:38:27;;;;;;;0.70;0.70;;;;;;;7.62;95.46;99049.78;5131889;27;20205;-59
2023/03/25 03:41:00;;;;;;;0.60;0.60;;;;;;;7.63;96.03;99059.06;5131894;27;20673;-59
2023/03/25 03:43:31;;;;;;;0.43;0.43;;;;;;;7.65;95.81;99059.06;5125612;27;20201;-59
2023/03/25 03:46:02;;;;;;;0.60;0.60;;;;;;;7.64;96.24;99059.91;5121291;27;20198;-60
2023/03/25 03:48:37;;;;;;;0.50;0.50;;;;;;;7.66;96.58;99056.44;5119600;27;20217;-59
2023/03/25 03:51:10;;;;;;;0.60;0.60;;;;;;;7.68;95.87;99051.31;5129882;27;20646;-59
2023/03/25 03:53:44;;;;;;;0.60;0.60;;;;;;;7.65;95.73;99057.34;5129788;27;20289;-59
2023/03/25 03:56:20;;;;;;;0.60;0.60;;;;;;;7.69;96.05;99047.91;5124257;27;20593;-59
2023/03/25 03:58:52;;;;;;;0.50;0.50;;;;;;;7.66;95.58;99046.25;5131623;27;20193;-60
2023/03/25 04:01:29;;;;;;;0.63;0.63;;;;;;;7.66;95.95;99051.34;5130571;27;20202;-59
2023/03/25 04:03:59;;;;;;;0.60;0.60;;;;;;;7.63;95.57;99045.47;5124081;27;20194;-60
2023/03/25 04:06:34;;;;;;;0.53;0.53;;;;;;;7.60;95.44;99040.44;5132315;27;20665;-60
2023/03/25 04:09:05;;;;;;;0.50;0.50;;;;;;;7.58;95.32;99037.97;5132917;27;20194;-60
2023/03/25 04:11:40;;;;;;;0.60;0.60;;;;;;;7.44;94.70;99028.94;5121014;27;20197;-60
2023/03/25 04:14:09;;;;;;;0.50;0.50;;;;;;;7.48;94.89;99045.84;5125193;27;20673;-60
2023/03/25 04:16:36;;;;;;;0.60;0.60;;;;;;;7.45;95.43;99053.56;5123078;27;20190;-59
2023/03/25 04:19:04;;;;;;;0.50;0.50;;;;;;;7.43;95.56;99052.78;5126661;27;20206;-60
2023/03/25 04:21:31;;;;;;;0.50;0.50;;;;;;;7.36;95.60;99059.72;5125364;27;20224;-60
2023/03/25 04:24:00;;;;;;;0.70;0.70;;;;;;;7.32;95.54;99055.56;5130355;27;20704;-60
2023/03/25 04:26:28;;;;;;;0.50;0.50;;;;;;;7.32;95.44;99058.97;5126627;27;20225;-59
2023/03/25 04:28:59;;;;;;;0.50;0.50;;;;;;;7.34;95.65;99064.84;5122613;27;20262;-59
2023/03/25 04:31:30;;;;;;;0.50;0.50;;;;;;;7.33;95.53;99064.91;5135112;27;20194;-59
2023/03/25 04:33:57;;;;;;;0.40;0.40;;;;;;;7.24;95.45;99050.63;5116286;27;20210;-59
2023/03/25 04:36:27;;;;;;;0.60;0.60;;;;;;;7.35;94.90;99066.53;5126509;27;20202;-60
2023/03/25 04:38:54;;;;;;;0.53;0.53;;;;;;;7.38;95.06;99063.91;5132927;27;20193;-59
2023/03/25 04:41:21;;;;;;;0.70;0.70;;;;;;;7.39;94.89;99068.16;5126319;27;20191;-60
2023/03/25 04:43:49;;;;;;;3.10;0.97;;;;;;;7.39;95.05;99068.16;5129100;27;20199;-59
2023/03/25 04:46:18;;;;;;;0.60;0.60;;;;;;;7.39;94.91;99073.25;5132040;27;20201;-59
2023/03/25 04:48:46;;;;;;;0.70;0.70;;;;;;;7.42;95.47;99068.94;5116818;27;20726;-59
2023/03/25 04:51:14;;;;;;;0.50;0.50;;;;;;;7.45;95.15;99077.38;5130077;27;20228;-60
2023/03/25 04:53:42;;;;;;;0.40;0.40;;;;;;;7.53;95.37;99079.75;5128082;27;20257;-58
2023/03/25 04:56:14;;;;;;;0.60;0.60;;;;;;;7.59;95.46;99083.00;5126189;27;20602;-59
2023/03/25 04:58:42;;;;;;;0.50;0.50;;;;;;;7.64;95.71;99070.13;5131170;27;20587;-60
2023/03/25 05:01:19;;;;;;;0.50;0.50;;;;;;;7.67;95.95;99059.84;5131137;27;20194;-59
2023/03/25 05:03:49;;;;;;;0.63;0.63;;;;;;;7.74;96.11;99053.72;5117716;27;20195;-60
2023/03/25 05:06:18;;;;;;;0.40;0.40;;;;;;;7.96;96.47;99061.69;5126432;27;20832;-59
2023/03/25 05:08:44;;;;;;;0.70;0.70;;;;;;;8.06;95.89;99063.97;5126880;27;20255;-59
2023/03/25 05:11:11;;;;;;;0.70;0.70;;;;;;;8.28;95.31;99070.22;5118042;27;20194;-60
2023/03/25 05:13:38;;;;;;;0.50;0.50;;;;;;;8.43;95.48;99062.16;5131558;27;20570;-60
2023/03/25 05:16:05;;;;;;;0.50;0.50;;;;;;;8.62;94.83;99071.91;5121556;28;20686;-59
2023/03/25 05:18:32;;;;;;;0.97;0.97;;;;;;;8.80;94.70;99073.94;5128635;28;20202;-60
2023/03/25 05:21:01;;;;;;;0.40;0.40;;;;;;;8.98;93.77;99070.88;5129698;27;20658;-59
2023/03/25 05:23:30;;;;;;;0.60;0.60;;;;;;;9.17;93.30;99076.25;5124286;27;20194;-60
2023/03/25 05:25:57;;;;;;;0.50;0.50;;;;;;;9.27;91.97;99073.38;5128208;28;20632;-58
2023/03/25 05:28:24;;;;;;;0.40;0.40;;;;;;;9.42;92.94;99074.63;5124232;28;20605;-60
2023/03/25 05:30:51;;;;;;;0.87;0.87;;;;;;;9.65;92.58;99069.66;5129003;28;20271;-60
2023/03/25 05:33:18;;;;;;;0.67;0.67;;;;;;;9.83;91.88;99063.94;5125523;28;20574;-59
2023/03/25 05:35:46;;;;;;;0.50;0.50;;;;;;;10.03;91.13;99071.81;5129336;27;20190;-59
2023/03/25 05:38:17;;;;;;;0.53;0.53;;;;;;;10.26;90.88;99062.53;5113524;28;20194;-59
2023/03/25 05:40:44;;;;;;;0.57;0.57;;;;;;;10.32;89.74;99052.91;5125810;28;20204;-59
2023/03/25 05:43:11;;;;;;;0.50;0.50;;;;;;;10.55;88.49;99057.25;5122546;28;20204;-59
2023/03/25 05:45:38;;;;;;;0.50;0.50;;;;;;;10.79;87.74;99053.78;5120791;28;20665;-59
2023/03/25 05:48:05;;;;;;;0.50;0.50;;;;;;;11.01;86.26;99057.25;5127106;28;20217;-59
2023/03/25 05:50:32;;;;;;;0.40;0.40;;;;;;;11.22;86.58;99068.41;5122516;28;20198;-59
2023/03/25 05:52:59;;;;;;;0.50;0.50;;;;;;;11.35;85.71;99063.66;5127103;28;20222;-59
2023/03/25 05:55:28;;;;;;;1.17;1.17;;;;;;;11.57;84.66;99064.47;5138232;27;20225;-60
2023/03/25 05:57:57;;;;;;;0.63;0.63;;;;;;;11.80;84.93;99063.59;5133625;27;20262;-59
2023/03/25 06:00:24;;;;;;;0.40;0.40;;;;;;;12.06;83.26;99059.06;5128375;27;20199;-59
2023/03/25 06:02:51;;;;;;;0.50;0.50;;;;;;;12.27;83.40;99067.63;5127031;27;20582;-58
2023/03/25 06:05:22;;;;;;;0.60;0.60;;;;;;;12.46;80.39;99068.50;5119281;28;20198;-59
2023/03/25 06:07:49;;;;;;;0.87;0.87;;;;;;;12.64;78.63;99065.13;5119137;27;20202;-58
2023/03/25 06:10:17;;;;;;;0.53;0.53;;;;;;;12.68;77.08;99073.53;5125998;27;20198;-60
2023/03/25 06:12:46;;;;;;;0.50;0.50;;;;;;;12.87;76.64;99074.41;5122010;27;20271;-60
2023/03/25 06:15:16;;;;;;;0.50;0.50;;;;;;;12.92;74.58;99081.94;5122795;28;20200;-59
2023/03/25 06:17:45;;;;;;;0.50;0.50;;;;;;;12.95;75.03;99068.94;5117665;28;20202;-60
2023/03/25 06:20:15;;;;;;;0.50;0.50;;;;;;;13.08;75.21;99072.63;5133749;27;20214;-59
2023/03/25 06:22:44;;;;;;;0.70;0.70;;;;;;;13.26;74.51;99071.78;5125859;27;20243;-60
2023/03/25 06:25:12;;;;;;;0.43;0.43;;;;;;;13.45;73.52;99067.44;5128988;27;20205;-59
2023/03/25 06:27:40;;;;;;;1.03;1.03;;;;;;;13.57;74.64;99071.22;5132550;27;20194;-59
2023/03/25 06:30:11;;;;;;;0.63;0.63;;;;;;;13.65;74.05;99075.06;5122077;27;20247;-60
2023/03/25 06:32:38;;;;;;;0.50;0.50;;;;;;;13.70;74.30;99053.44;5140599;27;20206;-59
2023/03/25 06:35:06;;;;;;;0.90;0.90;;;;;;;13.96;75.64;99068.41;5134446;27;20196;-59
2023/03/25 06:37:34;;;;;;;0.60;0.60;;;;;;;14.06;71.66;99064.50;5135285;27;20233;-59
2023/03/25 06:40:01;;;;;;;0.80;0.80;;;;;;;14.11;71.28;99065.09;5127964;27;20204;-59
2023/03/25 06:42:28;;;;;;;0.50;0.50;;;;;;;14.22;72.15;99055.06;5131837;27;20198;-60
2023/03/25 06:44:55;;;;;;;0.60;0.60;;;;;;;14.34;71.85;99057.09;5133432;27;20198;-60
2023/03/25 06:47:23;;;;;;;0.50;0.50;;;;;;;14.43;71.97;99056.63;5130378;27;20204;-60
2023/03/25 06:49:50;;;;;;;0.50;0.50;;;;;;;14.73;70.07;99058.53;5126172;27;20666;-59
2023/03/25 06:52:17;;;;;;;0.50;0.50;;;;;;;14.95;69.54;99062.47;5130392;27;20198;-59
2023/03/25 06:54:44;;;;;;;0.40;0.40;;;;;;;15.16;70.30;99058.72;5134538;27;20229;-60
2023/03/25 06:57:10;;;;;;;1.57;1.47;;;;;;;15.29;68.39;99058.06;5130044;27;20587;-60
2023/03/25 06:59:37;;;;;;;0.50;0.50;;;;;;;15.37;68.31;99063.66;5138592;27;20201;-60
2023/03/25 07:02:04;;;;;;;0.80;0.80;;;;;;;15.44;67.06;99070.16;5118585;27;20263;-60
2023/03/25 07:04:32;;;;;;;0.47;0.47;;;;;;;15.68;66.82;99069.63;5121481;27;20260;-59
2023/03/25 07:06:59;;;;;;;0.50;0.50;;;;;;;15.85;66.79;99060.09;5126772;27;20201;-59
2023/03/25 07:09:26;;;;;;;0.50;0.50;;;;;;;15.93;65.29;99063.09;5128422;27;20197;-60
2023/03/25 07:11:53;;;;;;;0.50;0.50;;;;;;;16.03;64.66;99044.38;5121928;27;20206;-60
2023/03/25 07:14:20;;;;;;;0.47;0.47;;;;;;;16.39;62.94;99069.00;5122408;27;20225;-60
2023/03/25 07:16:46;;;;;;;0.50;0.50;;;;;;;16.39;62.90;99062.06;5130068;27;20629;-60
2023/03/25 07:19:13;;;;;;;0.40;0.40;;;;;;;16.46;62.41;99058.19;5126397;27;20199;-60
2023/03/25 07:21:41;;;;;;;0.70;0.70;;;;;;;16.53;64.14;99058.66;5117141;27;20658;-59
2023/03/25 07:24:09;;;;;;;0.40;0.40;;;;;;;16.80;62.09;99065.63;5126881;27;20197;-59
2023/03/25 07:26:35;;;;;;;0.60;0.60;;;;;;;16.96;63.08;99054.34;5125253;27;20202;-60
2023/03/25 07:29:03;;;;;;;0.60;0.60;;;;;;;17.07;62.74;99059.69;5132504;27;20258;-60
2023/03/25 07:31:30;;;;;;;2.03;1.00;;;;;;;17.18;61.25;99065.03;5126184;27;20322;-60
2023/03/25 07:33:58;;;;;;;0.50;0.50;;;;;;;17.30;60.64;99064.28;5126382;27;20688;-59
2023/03/25 07:36:25;;;;;;;0.30;0.30;;;;;;;17.26;60.80;99052.44;5133063;27;20206;-60
2023/03/25 07:38:54;;;;;;;0.40;0.40;;;;;;;17.30;61.34;99051.31;5126352;27;20194;-60
2023/03/25 07:41:20;;;;;;;0.60;0.60;;;;;;;17.40;60.57;99051.56;5129117;27;20209;-59
2023/03/25 07:43:47;;;;;;;0.50;0.50;;;;;;;17.58;60.33;99056.44;5130803;27;20193;-59
2023/03/25 07:46:14;;;;;;;0.60;0.60;;;;;;;17.79;60.16;99042.09;5139068;27;20201;-60
2023/03/25 07:48:41;;;;;;;0.43;0.43;;;;;;;18.11;59.55;99049.53;5118369;27;20203;-60
2023/03/25 07:51:08;;;;;;;0.60;0.60;;;;;;;18.30;58.30;99040.41;5130890;27;20199;-60
2023/03/25 07:53:37;;;;;;;0.50;0.50;;;;;;;18.41;57.31;99037.09;5129348;27;20597;-60
2023/03/25 07:56:07;;;;;;;0.53;0.53;;;;;;;18.17;57.52;99028.34;5122448;27;20229;-60
2023/03/25 07:58:33;;;;;;;0.50;0.50;;;;;;;18.19;58.11;99021.31;5122419;27;20193;-59
2023/03/25 08:01:00;;;;;;;0.50;0.50;;;;;;;18.35;57.34;99025.34;5131065;27;20252;-59
2023/03/25 08:03:27;;;;;;;0.50;0.50;;;;;;;18.56;57.60;99030.03;5125801;27;20255;-59
2023/03/25 08:05:54;;;;;;;0.40;0.40;;;;;;;18.63;56.61;99021.75;5115699;27;20430;-61
2023/03/25 08:08:21;;;;;;;0.45;0.45;;;;;;;18.75;56.21;99020.88;5128505;27;20523;-66
2023/03/25 08:10:48;;;;;;;0.50;0.50;;;;;;;18.94;57.44;99019.59;5120081;27;20215;-66
2023/03/25 08:13:16;;;;;;;0.50;0.50;;;;;;;19.10;55.73;99026.19;5120283;27;20227;-66
2023/03/25 08:15:43;;;;;;;0.50;0.50;;;;;;;19.20;57.44;99015.97;5118817;27;20203;-66
2023/03/25 08:18:10;;;;;;;0.30;0.30;;;;;;;19.41;54.42;99014.50;5115900;27;20198;-66
2023/03/25 08:20:37;;;;;;;0.50;0.50;;;;;;;19.42;54.70;99016.13;5121907;27;20673;-66
2023/03/25 08:23:09;;;;;;;0.30;0.30;;;;;;;19.60;53.83;98995.78;5123672;27;20208;-66
2023/03/25 08:25:36;;;;;;;0.50;0.50;;;;;;;19.82;53.71;99012.28;5129193;27;20206;-66
2023/03/25 08:28:03;;;;;;;0.37;0.37;;;;;;;19.78;53.00;99007.41;5122664;27;20202;-66
2023/03/25 08:30:36;;;;;;;0.37;0.37;;;;;;;19.92;54.37;99012.44;5116738;27;20732;-66
2023/03/25 08:33:04;;;;;;;0.50;0.50;;;;;;;19.99;53.44;99005.00;5114785;27;20200;-66
2023/03/25 08:35:30;;;;;;;0.40;0.40;;;;;;;20.03;54.25;99001.22;5122391;27;20202;-66
2023/03/25 08:38:03;;;;;;;0.60;0.60;;;;;;;19.99;52.19;99005.00;5121309;27;20205;-66
2023/03/25 08:40:30;;;;;;;0.40;0.40;;;;;;;19.81;51.35;99002.81;5126846;27;20209;-66
2023/03/25 08:42:57;;;;;;;0.50;0.50;;;;;;;19.90;53.86;99001.31;5125337;27;20209;-66
2023/03/25 08:45:24;;;;;;;0.40;0.40;;;;;;;20.00;52.96;98993.66;5121582;27;20199;-66
2023/03/25 08:47:52;;;;;;;0.40;0.40;;;;;;;20.25;53.00;98996.06;5128631;27;20211;-66
2023/03/25 08:50:19;;;;;;;0.43;0.43;;;;;;;20.46;51.82;98984.03;5116456;27;20201;-66
2023/03/25 08:52:47;;;;;;;0.40;0.40;;;;;;;20.51;50.58;98979.31;5127747;27;20215;-66
2023/03/25 08:55:15;;;;;;;0.30;0.30;;;;;;;20.65;52.25;98979.03;5123402;27;20253;-66
2023/03/25 08:57:42;;;;;;;0.40;0.40;;;;;;;20.73;51.07;98971.47;5122385;27;20205;-65
2023/03/25 09:00:12;;;;;;;0.40;0.40;;;;;;;20.72;49.66;98968.97;5128713;27;20300;-66
2023/03/25 09:02:39;;;;;;;0.50;0.50;;;;;;;20.75;49.95;98961.75;5123809;27;20280;-66
2023/03/25 09:05:09;;;;;;;0.30;0.30;;;;;;;20.57;51.72;98960.59;5126175;27;20281;-66
2023/03/25 09:07:36;;;;;;;0.40;0.40;;;;;;;20.67;50.54;98956.34;5121464;27;20300;-66
2023/03/25 09:10:04;;;;;;;0.30;0.30;;;;;;;20.88;52.49;98959.84;5126742;27;20233;-66
2023/03/25 09:12:31;;;;;;;0.47;0.47;;;;;;;20.95;50.10;98950.59;5123722;27;20205;-66
2023/03/25 09:14:59;;;;;;;0.40;0.40;;;;;;;20.94;52.02;98948.09;5121930;27;20209;-66
2023/03/25 09:17:26;;;;;;;0.50;0.50;;;;;;;21.02;51.67;98944.88;5118193;28;20204;-66
2023/03/25 09:19:53;;;;;;;0.40;0.40;;;;;;;20.89;51.82;98938.06;5124309;28;20271;-66
2023/03/25 09:22:21;;;;;;;0.40;0.40;;;;;;;20.72;50.76;98930.72;5129813;28;20201;-65
2023/03/25 09:24:48;;;;;;;0.60;0.60;;;;;;;20.93;50.66;98931.66;5117207;28;20201;-66
2023/03/25 09:27:15;;;;;;;0.73;0.73;;;;;;;21.11;52.88;98933.75;5118919;28;20194;-66
2023/03/25 09:29:42;;;;;;;0.40;0.40;;;;;;;21.29;50.42;98929.66;5128792;28;20758;-66
2023/03/25 09:32:09;;;;;;;0.53;0.53;;;;;;;21.36;50.24;98928.19;5125918;28;20624;-66
2023/03/25 09:34:37;;;;;;;0.20;0.20;;;;;;;21.51;49.76;98921.72;5118511;28;20218;-66
2023/03/25 09:37:03;;;;;;;0.40;0.40;;;;;;;21.66;47.79;98920.47;5122284;27;20197;-65
2023/03/25 09:39:31;;;;;;;0.40;0.40;;;;;;;21.79;49.65;98910.66;5120001;28;20198;-66
2023/03/25 09:42:12;;;;;;;0.40;0.40;;;;;;;21.95;50.35;98911.06;5117952;28;20198;-65
2023/03/25 09:44:50;;;;;;;0.33;0.33;;;;;;;21.45;49.70;98906.59;5124363;28;20247;-65
2023/03/25 09:47:20;;;;;;;0.40;0.40;;;;;;;21.35;50.71;98888.28;5121949;27;20631;-66
2023/03/25 09:49:52;;;;;;;0.33;0.33;;;;;;;21.65;53.07;98894.50;5122161;27;20201;-66
2023/03/25 09:52:25;;;;;;;0.60;0.60;;;;;;;21.95;54.26;98894.56;5115616;28;20307;-66
2023/03/25 09:54:57;;;;;;;0.40;0.40;;;;;;;22.14;51.79;98885.97;5124052;27;20221;-66
2023/03/25 09:57:28;;;;;;;0.43;0.43;;;;;;;22.31;49.91;98890.59;5137061;27;20738;-66
2023/03/25 09:59:57;;;;;;;0.30;0.30;;;;;;;22.19;49.11;98894.25;5129405;27;20285;-65
2023/03/25 10:02:35;;;;;;;0.40;0.40;;;;;;;21.93;49.30;98884.25;5121110;27;20223;-65
2023/03/25 10:05:38;;;;;;;0.40;0.40;;;;;;;21.73;50.30;98874.66;5121428;27;20208;-66
2023/03/25 10:08:15;;;;;;;0.40;0.40;;;;;;;21.83;52.45;98859.88;5129298;27;20245;-65
2023/03/25 10:10:52;;;;;;;0.30;0.30;;;;;;;21.86;50.20;98867.44;5126491;27;20660;-64
2023/03/25 10:13:27;;;;;;;0.33;0.33;;;;;;;21.78;50.31;98846.38;5120196;27;20650;-66
2023/03/25 10:15:59;;;;;;;0.93;0.93;;;;;;;22.00;49.11;98850.66;5122050;27;20205;-66
2023/03/25 10:18:43;;;;;;;0.50;0.50;;;;;;;21.89;49.45;98850.72;5124326;27;20195;-65
2023/03/25 10:21:15;;;;;;;0.30;0.30;;;;;;;21.91;51.66;98847.00;5129046;27;20299;-66
2023/03/25 10:23:45;;;;;;;0.40;0.40;;;;;;;22.12;48.06;98843.53;5122576;27;20258;-66
2023/03/25 10:26:19;;;;;;;0.30;0.30;;;;;;;22.35;48.83;98835.38;5126623;27;20205;-65
2023/03/25 10:28:52;;;;;;;0.33;0.33;;;;;;;22.62;44.65;98839.13;5115482;27;20237;-65
2023/03/25 10:31:24;;;;;;;0.40;0.40;;;;;;;22.66;46.21;98815.22;5126702;27;20209;-65
2023/03/25 10:33:55;;;;;;;0.30;0.30;;;;;;;22.55;46.14;98824.94;5121599;27;20235;-66
2023/03/25 10:36:31;;;;;;;0.30;0.30;;;;;;;22.55;47.23;98810.09;5124911;27;20198;-66
2023/03/25 10:39:03;;;;;;;0.43;0.43;;;;;;;22.68;46.82;98800.22;5130340;27;20198;-66
2023/03/25 10:41:36;;;;;;;0.40;0.40;;;;;;;22.68;45.97;98791.59;5126194;27;20245;-65
2023/03/25 10:44:08;;;;;;;0.30;0.30;;;;;;;22.75;46.64;98788.25;5125828;27;20191;-66
2023/03/25 10:46:46;;;;;;;0.53;0.53;;;;;;;22.81;47.85;98790.31;5123236;27;20654;-66
2023/03/25 10:49:16;;;;;;;0.27;0.27;;;;;;;23.02;47.77;98791.00;5120281;27;20218;-66
2023/03/25 10:51:44;;;;;;;0.30;0.30;;;;;;;22.95;46.58;98784.69;5122146;27;20285;-65
2023/03/25 10:54:12;;;;;;;0.20;0.20;;;;;;;23.01;45.94;98781.50;5128229;27;20214;-66
2023/03/25 10:56:44;;;;;;;0.73;0.73;;;;;;;22.84;45.37;98776.97;5133316;27;20226;-65
2023/03/25 10:59:17;;;;;;;0.30;0.30;;;;;;;22.71;47.03;98770.41;5120254;27;20199;-66
2023/03/25 11:01:44;;;;;;;0.50;0.50;;;;;;;22.82;45.72;98771.06;5121751;27;20638;-66
2023/03/25 11:04:16;;;;;;;0.30;0.30;;;;;;;22.87;45.77;98765.44;5116385;27;20191;-66
2023/03/25 11:06:47;;;;;;;0.30;0.30;;;;;;;22.68;47.07;98752.38;5122956;27;20673;-65
2023/03/25 11:09:22;;;;;;;0.40;0.40;;;;;;;22.54;48.37;98756.19;5123702;27;20190;-66
2023/03/25 11:11:52;;;;;;;0.40;0.40;;;;;;;22.54;48.35;98756.19;5130458;27;20199;-66
2023/03/25 11:14:23;;;;;;;0.30;0.30;;;;;;;22.67;48.44;98743.72;5127938;27;20217;-66
2023/03/25 11:16:55;;;;;;;0.30;0.30;;;;;;;22.76;47.36;98749.91;5130206;27;20198;-65
2023/03/25 11:19:27;;;;;;;0.40;0.40;;;;;;;22.79;46.96;98745.22;5120162;27;20237;-66
2023/03/25 11:21:57;;;;;;;0.40;0.40;;;;;;;22.91;48.43;98740.66;5116596;27;20683;-66
2023/03/25 11:24:30;;;;;;;0.40;0.40;;;;;;;22.97;47.69;98730.47;5133053;27;20661;-66
2023/03/25 11:26:59;;;;;;;0.30;0.30;;;;;;;23.17;48.15;98730.41;5121776;27;20198;-66
2023/03/25 11:29:27;;;;;;;0.30;0.30;;;;;;;23.15;45.57;98724.53;5117169;27;20263;-65
2023/03/25 11:32:04;;;;;;;0.33;0.33;;;;;;;23.05;46.38;98723.72;5123644;27;20204;-66
2023/03/25 11:34:32;;;;;;;0.30;0.30;;;;;;;23.14;46.91;98715.00;5123345;27;20218;-66
2023/03/25 11:37:03;;;;;;;0.30;0.30;;;;;;;23.11;45.42;98707.47;5126467;27;20209;-66
2023/03/25 11:39:35;;;;;;;0.20;0.20;;;;;;;23.33;46.84;98707.09;5124914;27;20706;-66
2023/03/25 11:42:15;;;;;;;0.40;0.40;;;;;;;23.39;45.62;98688.25;5123900;27;20293;-66
2023/03/25 11:44:42;;;;;;;0.50;0.50;;;;;;;23.46;45.18;98694.56;5127782;27;20239;-65
2023/03/25 11:47:10;;;;;;;0.37;0.37;;;;;;;23.38;46.15;98689.22;5126323;27;20205;-65
2023/03/25 11:49:40;;;;;;;0.40;0.40;;;;;;;23.36;45.42;98685.94;5130444;27;20202;-66
2023/03/25 11:52:09;;;;;;;0.37;0.37;;;;;;;23.39;46.15;98680.41;5120895;27;20198;-66